createdAt,value
2018-10-12T00:01:06.573Z,10.83
2018-10-12T00:03:35.156Z,10.87
2018-10-12T00:06:03.749Z,11.30
2018-10-12T00:08:32.347Z,11.83
2018-10-12T00:11:00.953Z,11.10
2018-10-12T00:13:29.528Z,10.63
2018-10-12T00:15:59.000Z,10.47
2018-10-12T00:18:28.233Z,10.93
2018-10-12T00:20:57.197Z,11.17
2018-10-12T00:23:25.756Z,11.00
2018-10-12T00:25:54.323Z,11.13
2018-10-12T00:28:22.875Z,10.83
2018-10-12T00:30:51.503Z,11.17
2018-10-12T00:33:20.079Z,11.40
2018-10-12T00:35:48.667Z,11.03
2018-10-12T00:38:17.226Z,10.47
2018-10-12T00:40:45.824Z,11.03
2018-10-12T00:43:14.404Z,10.80
2018-10-12T00:45:43.079Z,11.40
2018-10-12T00:48:11.672Z,11.37
2018-10-12T00:50:40.272Z,10.83
2018-10-12T00:53:08.828Z,10.97
2018-10-12T00:55:37.397Z,10.37
2018-10-12T00:58:05.971Z,10.83
2018-10-12T01:00:34.537Z,11.20
2018-10-12T01:03:03.129Z,10.50
2018-10-12T01:05:31.722Z,10.93
2018-10-12T01:08:00.276Z,11.03
2018-10-12T01:10:28.856Z,10.40
2018-10-12T01:12:57.608Z,10.80
2018-10-12T01:15:26.173Z,11.03
2018-10-12T01:17:54.761Z,10.97
2018-10-12T01:20:23.819Z,10.60
2018-10-12T01:22:52.389Z,10.67
2018-10-12T01:25:20.952Z,10.13
2018-10-12T01:27:49.508Z,10.70
2018-10-12T01:30:18.073Z,10.97
2018-10-12T01:32:51.814Z,11.23
2018-10-12T01:35:20.392Z,10.60
2018-10-12T01:37:48.974Z,11.27
2018-10-12T01:40:17.588Z,10.73
2018-10-12T01:42:46.139Z,10.90
2018-10-12T01:45:14.711Z,11.47
2018-10-12T01:47:43.267Z,11.43
2018-10-12T01:50:11.846Z,10.63
2018-10-12T01:52:40.427Z,10.97
2018-10-12T01:55:09.015Z,11.00
2018-10-12T01:57:37.599Z,11.40
2018-10-12T02:00:06.331Z,10.33
2018-10-12T02:02:34.925Z,10.63
2018-10-12T02:05:03.556Z,11.10
2018-10-12T02:07:32.159Z,11.53
2018-10-12T02:10:00.759Z,10.97
2018-10-12T02:12:29.308Z,11.37
2018-10-12T02:14:57.895Z,11.53
2018-10-12T02:17:26.501Z,11.30
2018-10-12T02:19:55.717Z,10.93
2018-10-12T02:22:24.289Z,11.30
2018-10-12T02:24:52.916Z,10.90
2018-10-12T02:27:21.575Z,10.43
2018-10-12T02:29:50.135Z,10.30
2018-10-12T02:32:18.816Z,10.73
2018-10-12T02:34:47.398Z,10.30
2018-10-12T02:37:15.961Z,11.00
2018-10-12T02:39:44.534Z,10.83
2018-10-12T02:42:13.117Z,10.93
2018-10-12T02:44:41.659Z,10.40
2018-10-12T02:47:10.250Z,10.33
2018-10-12T02:49:38.828Z,11.20
2018-10-12T02:52:07.414Z,10.43
2018-10-12T02:54:36.004Z,10.67
2018-10-12T02:57:04.608Z,10.97
2018-10-12T02:59:33.188Z,10.27
2018-10-12T03:02:01.763Z,10.70
2018-10-12T03:04:30.352Z,10.47
2018-10-12T03:06:58.920Z,10.33
2018-10-12T03:09:27.983Z,10.87
2018-10-12T03:11:57.177Z,9.93
2018-10-12T03:14:26.182Z,11.07
2018-10-12T03:16:54.894Z,11.50
2018-10-12T03:19:23.440Z,10.40
2018-10-12T03:21:52.064Z,10.70
2018-10-12T03:24:20.663Z,11.17
2018-10-12T03:26:49.251Z,10.40
2018-10-12T03:29:17.880Z,10.60
2018-10-12T03:31:46.524Z,10.80
2018-10-12T03:34:15.085Z,10.60
2018-10-12T03:36:43.669Z,10.57
2018-10-12T03:39:12.280Z,10.40
2018-10-12T03:41:40.880Z,11.73
2018-10-12T03:44:09.440Z,10.07
2018-10-12T03:46:38.040Z,10.83
2018-10-12T03:49:06.639Z,10.83
2018-10-12T03:51:35.226Z,10.57
2018-10-12T03:54:03.802Z,10.27
2018-10-12T03:56:32.425Z,10.27
2018-10-12T03:59:00.671Z,10.53
2018-10-12T04:01:29.832Z,10.53
2018-10-12T04:03:59.064Z,10.03
2018-10-12T04:06:28.093Z,10.00
2018-10-12T04:08:57.360Z,10.47
2018-10-12T04:11:26.608Z,9.97
2018-10-12T04:13:55.160Z,10.37
2018-10-12T04:16:23.736Z,10.67
2018-10-12T04:18:52.348Z,10.30
2018-10-12T04:21:22.020Z,10.47
2018-10-12T04:23:50.588Z,10.80
2018-10-12T04:26:19.901Z,10.40
2018-10-12T04:28:48.776Z,10.23
2018-10-12T04:31:17.891Z,10.33
2018-10-12T04:33:46.850Z,10.07
2018-10-12T04:36:15.680Z,9.70
2018-10-12T04:38:55.492Z,9.97
2018-10-12T04:41:25.252Z,11.00
2018-10-12T04:43:55.272Z,10.33
2018-10-12T04:46:40.888Z,10.97
2018-10-12T04:49:16.276Z,10.97
2018-10-12T04:51:47.292Z,11.60
2018-10-12T04:54:15.999Z,11.70
2018-10-12T04:56:44.842Z,11.20
2018-10-12T04:59:13.440Z,11.60
2018-10-12T05:01:42.001Z,12.03
2018-10-12T05:04:10.587Z,11.30
2018-10-12T05:06:39.192Z,11.65
2018-10-12T05:09:08.868Z,12.25
2018-10-12T05:11:37.498Z,12.43
2018-10-12T05:14:06.288Z,12.43
2018-10-12T05:16:35.449Z,11.78
2018-10-12T05:19:04.002Z,12.05
2018-10-12T05:21:32.909Z,11.30
2018-10-12T05:24:01.804Z,11.65
2018-10-12T05:26:30.410Z,12.75
2018-10-12T05:28:59.029Z,11.85
2018-10-12T05:31:27.607Z,11.90
2018-10-12T05:33:56.673Z,11.97
2018-10-12T05:36:25.269Z,12.28
2018-10-12T05:38:53.832Z,11.80
2018-10-12T05:41:22.401Z,11.77
2018-10-12T05:43:51.054Z,12.10
2018-10-12T05:46:19.583Z,12.23
2018-10-12T05:48:59.217Z,12.50
2018-10-12T05:51:27.785Z,11.43
2018-10-12T05:53:56.380Z,11.63
2018-10-12T05:56:28.632Z,11.80
2018-10-12T05:58:57.220Z,11.70
2018-10-12T06:01:25.893Z,11.47
2018-10-12T06:03:54.468Z,11.67
2018-10-12T06:06:23.032Z,11.57
2018-10-12T06:08:51.619Z,11.67
2018-10-12T06:11:20.238Z,11.40
2018-10-12T06:13:48.820Z,11.07
2018-10-12T06:16:17.459Z,10.90
2018-10-12T06:18:46.100Z,11.20
2018-10-12T06:21:14.677Z,11.33
2018-10-12T06:23:43.252Z,11.60
2018-10-12T06:26:12.027Z,11.27
2018-10-12T06:28:40.616Z,11.40
2018-10-12T06:31:09.722Z,11.23
2018-10-12T06:33:38.284Z,11.07
2018-10-12T06:36:07.077Z,11.17
2018-10-12T06:38:35.644Z,11.13
2018-10-12T06:41:04.353Z,10.67
2018-10-12T06:43:32.843Z,10.97
2018-10-12T06:46:01.425Z,10.80
2018-10-12T06:48:29.988Z,11.10
2018-10-12T06:50:59.207Z,11.10
2018-10-12T06:53:28.541Z,11.20
2018-10-12T06:55:57.928Z,11.07
2018-10-12T06:58:26.733Z,10.63
2018-10-12T07:00:55.304Z,10.00
2018-10-12T07:03:23.925Z,10.73
2018-10-12T07:05:52.489Z,10.33
2018-10-12T07:08:21.067Z,10.27
2018-10-12T07:10:49.634Z,10.40
2018-10-12T07:13:18.234Z,10.40
2018-10-12T07:15:46.815Z,10.47
2018-10-12T07:18:15.395Z,10.07
2018-10-12T07:20:43.995Z,10.57
2018-10-12T07:23:12.635Z,10.27
2018-10-12T07:25:41.192Z,10.17
2018-10-12T07:28:09.737Z,10.40
2018-10-12T07:30:38.306Z,9.90
2018-10-12T07:33:06.881Z,10.93
2018-10-12T07:35:35.445Z,10.27
2018-10-12T07:38:04.051Z,9.97
2018-10-12T07:40:32.628Z,10.37
2018-10-12T07:43:01.260Z,10.53
2018-10-12T07:45:30.147Z,10.17
2018-10-12T07:47:59.290Z,10.90
2018-10-12T07:50:28.742Z,10.30
2018-10-12T07:52:57.730Z,9.50
2018-10-12T07:55:26.919Z,10.43
2018-10-12T07:57:55.513Z,10.43
2018-10-12T08:00:24.196Z,10.43
2018-10-12T08:02:52.839Z,10.23
2018-10-12T08:05:21.388Z,10.43
2018-10-12T08:07:49.972Z,9.83
2018-10-12T08:10:18.564Z,9.37
2018-10-12T08:12:47.137Z,9.37
2018-10-12T08:15:15.714Z,10.17
2018-10-12T08:17:45.175Z,9.73
2018-10-12T08:20:14.165Z,9.43
2018-10-12T08:22:42.709Z,9.73
2018-10-12T08:25:11.336Z,10.07
2018-10-12T08:27:39.963Z,9.37
2018-10-12T08:30:08.656Z,9.70
2018-10-12T08:32:37.304Z,9.07
2018-10-12T08:35:06.116Z,9.93
2018-10-12T08:37:34.672Z,10.13
2018-10-12T08:40:03.241Z,8.87
2018-10-12T08:42:31.812Z,9.10
2018-10-12T08:45:00.388Z,9.57
2018-10-12T08:47:28.960Z,9.37
2018-10-12T08:49:57.878Z,9.77
2018-10-12T08:52:26.479Z,9.03
2018-10-12T08:54:55.046Z,8.97
2018-10-12T08:57:24.020Z,9.13
2018-10-12T08:59:53.152Z,9.17
2018-10-12T09:02:21.709Z,9.10
2018-10-12T09:04:50.293Z,9.57
2018-10-12T09:07:18.864Z,9.27
2018-10-12T09:09:47.476Z,9.00
2018-10-12T09:12:16.320Z,8.70
2018-10-12T09:14:44.860Z,8.50
2018-10-12T09:17:13.492Z,8.67
2018-10-12T09:19:42.068Z,8.67
2018-10-12T09:22:10.640Z,9.10
2018-10-12T09:24:39.253Z,9.00
2018-10-12T09:27:07.844Z,9.07
2018-10-12T09:29:36.420Z,8.87
2018-10-12T09:32:05.096Z,8.93
2018-10-12T09:34:33.659Z,8.17
2018-10-12T09:37:02.331Z,8.63
2018-10-12T09:39:30.834Z,8.80
2018-10-12T09:41:59.715Z,8.83
2018-10-12T09:44:28.419Z,8.40
2018-10-12T09:46:57.000Z,8.37
2018-10-12T09:49:25.603Z,8.70
2018-10-12T09:51:54.340Z,7.90
2018-10-12T09:54:22.881Z,8.40
2018-10-12T09:56:56.819Z,7.80
2018-10-12T09:59:25.924Z,8.33
2018-10-12T10:01:59.923Z,8.23
2018-10-12T10:04:30.920Z,8.20
2018-10-12T10:07:00.204Z,8.07
2018-10-12T10:09:30.452Z,8.40
2018-10-12T10:11:59.382Z,8.63
2018-10-12T10:14:29.129Z,7.87
2018-10-12T10:16:58.797Z,8.13
2018-10-12T10:19:28.300Z,7.83
2018-10-12T10:21:56.997Z,7.67
2018-10-12T10:24:25.571Z,7.40
2018-10-12T10:26:54.225Z,7.33
2018-10-12T10:29:23.168Z,7.20
2018-10-12T10:31:51.974Z,7.43
2018-10-12T10:34:21.127Z,7.20
2018-10-12T10:36:50.054Z,7.10
2018-10-12T10:39:18.763Z,7.00
2018-10-12T10:41:47.356Z,6.50
2018-10-12T10:44:15.924Z,6.50
2018-10-12T10:46:45.187Z,6.93
2018-10-12T10:49:13.772Z,7.00
2018-10-12T10:51:42.365Z,6.73
2018-10-12T10:54:10.948Z,6.97
2018-10-12T10:56:39.528Z,6.80
2018-10-12T10:59:08.099Z,6.80
2018-10-12T11:01:36.672Z,6.60
2018-10-12T11:04:05.245Z,6.30
2018-10-12T11:06:33.797Z,6.40
2018-10-12T11:09:02.361Z,6.57
2018-10-12T11:11:30.940Z,6.67
2018-10-12T11:13:59.493Z,6.43
2018-10-12T11:16:28.060Z,6.17
2018-10-12T11:18:56.790Z,6.47
2018-10-12T11:21:25.343Z,6.67
2018-10-12T11:23:53.921Z,6.53
2018-10-12T11:26:22.527Z,6.67
2018-10-12T11:28:51.112Z,6.27
2018-10-12T11:31:19.683Z,6.50
2018-10-12T11:33:48.262Z,6.20
2018-10-12T11:36:16.836Z,6.33
2018-10-12T11:38:45.397Z,6.53
2018-10-12T11:41:13.957Z,6.90
2018-10-12T11:43:42.520Z,6.60
2018-10-12T11:46:11.170Z,6.77
2018-10-12T11:48:40.057Z,6.60
2018-10-12T11:51:08.749Z,6.57
2018-10-12T11:53:37.528Z,7.07
2018-10-12T11:56:06.083Z,7.10
2018-10-12T11:58:34.646Z,6.70
2018-10-12T12:01:03.258Z,6.80
2018-10-12T12:03:31.822Z,7.60
2018-10-12T12:06:00.393Z,6.60
2018-10-12T12:08:29.054Z,7.07
2018-10-12T12:10:57.628Z,6.80
2018-10-12T12:13:26.265Z,6.60
2018-10-12T12:15:54.805Z,6.17
2018-10-12T12:18:23.360Z,6.67
2018-10-12T12:20:51.904Z,5.87
2018-10-12T12:23:20.444Z,6.77
2018-10-12T12:25:49.040Z,6.10
2018-10-12T12:28:18.328Z,6.33
2018-10-12T12:30:48.062Z,6.33
2018-10-12T12:33:16.664Z,6.47
2018-10-12T12:35:45.714Z,6.00
2018-10-12T12:38:15.168Z,5.63
2018-10-12T12:40:43.887Z,5.80
2018-10-12T12:43:12.458Z,8.10
2018-10-12T12:45:41.064Z,6.10
2018-10-12T12:48:09.911Z,5.33
2018-10-12T12:50:38.284Z,6.17
2018-10-12T12:53:07.196Z,5.07
2018-10-12T12:55:35.764Z,5.60
2018-10-12T12:58:04.882Z,5.53
2018-10-12T13:00:33.486Z,5.50
2018-10-12T13:03:02.024Z,5.20
2018-10-12T13:05:30.594Z,5.20
2018-10-12T13:07:59.179Z,5.43
2018-10-12T13:10:27.753Z,6.07
2018-10-12T13:12:56.319Z,5.47
2018-10-12T13:15:24.968Z,5.97
2018-10-12T13:17:53.540Z,5.90
2018-10-12T13:20:22.084Z,5.93
2018-10-12T13:22:50.640Z,6.00
2018-10-12T13:25:19.260Z,5.80
2018-10-12T13:27:47.867Z,5.83
2018-10-12T13:30:16.454Z,6.40
2018-10-12T13:32:45.097Z,5.37
2018-10-12T13:35:13.676Z,6.07
2018-10-12T13:37:42.273Z,6.30
2018-10-12T13:40:10.806Z,5.00
2018-10-12T13:42:39.464Z,5.50
2018-10-12T13:45:08.196Z,5.40
2018-10-12T13:47:36.747Z,5.90
2018-10-12T13:50:06.352Z,6.07
2018-10-12T13:52:34.956Z,6.00
2018-10-12T13:55:03.542Z,5.33
2018-10-12T13:57:32.096Z,5.47
2018-10-12T14:00:00.677Z,5.23
2018-10-12T14:02:29.596Z,5.43
2018-10-12T14:04:59.157Z,5.17
2018-10-12T14:07:27.749Z,5.40
2018-10-12T14:09:56.311Z,5.43
2018-10-12T14:12:24.933Z,5.47
2018-10-12T14:14:53.455Z,5.33
2018-10-12T14:17:22.001Z,5.87
2018-10-12T14:19:50.633Z,5.67
2018-10-12T14:22:19.145Z,5.80
2018-10-12T14:24:47.714Z,5.90
2018-10-12T14:27:16.673Z,5.43
2018-10-12T14:29:45.232Z,5.70
2018-10-12T14:32:13.814Z,5.60
2018-10-12T14:34:42.356Z,5.43
2018-10-12T14:37:10.959Z,5.47
2018-10-12T14:39:39.535Z,5.50
2018-10-12T14:42:08.068Z,5.33
2018-10-12T14:44:36.657Z,5.57
2018-10-12T14:47:05.232Z,5.70
2018-10-12T14:49:33.800Z,5.70
2018-10-12T14:52:02.468Z,5.57
2018-10-12T14:54:31.037Z,5.10
2018-10-12T14:57:00.438Z,6.00
2018-10-12T14:59:30.029Z,5.70
2018-10-12T15:01:59.303Z,6.17
2018-10-12T15:04:28.535Z,5.03
2018-10-12T15:06:57.468Z,5.67
2018-10-12T15:09:26.041Z,5.53
2018-10-12T15:11:54.708Z,5.20
2018-10-12T15:15:27.352Z,5.67
2018-10-12T15:17:56.852Z,5.67
2018-10-12T15:20:26.233Z,5.33
2018-10-12T15:22:54.840Z,5.70
2018-10-12T15:25:23.458Z,5.60
2018-10-12T15:27:52.126Z,5.73
2018-10-12T15:30:21.117Z,6.13
2018-10-12T15:32:49.663Z,6.37
2018-10-12T15:35:18.207Z,5.80
2018-10-12T15:37:46.849Z,6.20
2018-10-12T15:40:15.334Z,6.27
2018-10-12T15:42:43.959Z,5.90
2018-10-12T15:45:12.569Z,6.10
2018-10-12T15:47:41.136Z,5.73
2018-10-12T15:50:09.708Z,5.80
2018-10-12T15:52:38.293Z,5.70
2018-10-12T15:55:06.904Z,5.50
2018-10-12T15:57:35.545Z,6.07
2018-10-12T16:00:04.163Z,6.00
2018-10-12T16:02:32.780Z,5.40
2018-10-12T16:05:01.388Z,5.70
2018-10-12T16:07:29.960Z,6.03
2018-10-12T16:09:58.548Z,6.00
2018-10-12T16:12:27.156Z,5.87
2018-10-12T16:14:55.736Z,6.10
2018-10-12T16:17:24.289Z,6.23
2018-10-12T16:19:52.871Z,6.40
2018-10-12T16:22:22.360Z,5.87
2018-10-12T16:25:02.180Z,6.97
2018-10-12T16:27:30.745Z,6.67
2018-10-12T16:29:59.346Z,7.10
2018-10-12T16:32:27.900Z,7.17
2018-10-12T16:34:56.460Z,7.20
2018-10-12T16:37:25.007Z,7.07
2018-10-12T16:39:53.624Z,7.20
2018-10-12T16:42:22.271Z,7.03
2018-10-12T16:44:50.863Z,7.67
2018-10-12T16:47:19.475Z,6.90
2018-10-12T16:49:48.088Z,7.10
2018-10-12T16:52:16.734Z,8.37
2018-10-12T16:54:45.664Z,8.00
2018-10-12T16:57:14.292Z,7.50
2018-10-12T16:59:42.896Z,7.43
2018-10-12T17:02:12.077Z,8.07
2018-10-12T17:04:40.688Z,7.20
2018-10-12T17:07:09.284Z,7.83
2018-10-12T17:09:37.852Z,7.70
2018-10-12T17:12:06.430Z,7.47
2018-10-12T17:14:35.092Z,7.40
2018-10-12T17:17:03.990Z,7.80
2018-10-12T17:19:32.649Z,7.73
2018-10-12T17:22:01.240Z,7.17
2018-10-12T17:24:30.427Z,7.97
2018-10-12T17:26:59.987Z,7.70
2018-10-12T17:29:29.433Z,7.85
2018-10-12T17:31:58.468Z,7.60
2018-10-12T17:34:27.066Z,7.53
2018-10-12T17:36:55.632Z,8.10
2018-10-12T17:39:24.826Z,7.37
2018-10-12T17:41:53.444Z,8.03
2018-10-12T17:44:22.020Z,7.05
2018-10-12T17:46:51.080Z,7.08
2018-10-12T17:49:19.681Z,7.70
2018-10-12T17:51:48.251Z,8.58
2018-10-12T17:54:16.867Z,8.53
2018-10-12T17:56:45.637Z,9.38
2018-10-12T17:59:14.231Z,9.35
2018-10-12T18:01:42.860Z,9.40
2018-10-12T18:04:11.471Z,9.90
2018-10-12T18:06:41.015Z,8.88
2018-10-12T18:09:09.827Z,10.78
2018-10-12T18:11:38.901Z,10.90
2018-10-12T18:14:07.547Z,10.38
2018-10-12T18:16:36.142Z,10.18
2018-10-12T18:19:04.747Z,10.18
2018-10-12T18:21:34.465Z,10.03
2018-10-12T18:24:03.077Z,11.33
2018-10-12T18:26:31.648Z,11.40
2018-10-12T18:29:00.520Z,11.18
2018-10-12T18:31:29.171Z,10.20
2018-10-12T18:34:00.320Z,10.63
2018-10-12T18:36:29.154Z,11.28
2018-10-12T18:38:57.791Z,10.80
2018-10-12T18:41:26.373Z,10.80
2018-10-12T18:43:55.128Z,10.85
2018-10-12T18:46:23.744Z,11.70
2018-10-12T18:48:52.429Z,11.22
2018-10-12T18:51:23.453Z,11.12
2018-10-12T18:53:52.187Z,10.68
2018-10-12T18:56:20.934Z,10.98
2018-10-12T18:58:49.536Z,10.88
2018-10-12T19:01:18.245Z,11.78
2018-10-12T19:03:46.851Z,11.38
2018-10-12T19:06:15.571Z,11.90
2018-10-12T19:08:44.197Z,10.88
2018-10-12T19:11:16.699Z,11.57
2018-10-12T19:13:45.412Z,10.15
2018-10-12T19:16:13.913Z,10.72
2018-10-12T19:18:42.520Z,11.43
2018-10-12T19:21:11.172Z,11.22
2018-10-12T19:23:40.128Z,11.33
2018-10-12T19:26:10.336Z,10.65
2018-10-12T19:28:38.952Z,10.18
2018-10-12T19:31:08.330Z,10.43
2018-10-12T19:33:37.788Z,10.65
2018-10-12T19:36:06.449Z,10.60
2018-10-12T19:38:35.711Z,11.15
2018-10-12T19:41:04.335Z,10.43
2018-10-12T19:43:32.892Z,11.00
2018-10-12T19:46:01.476Z,10.75
2018-10-12T19:48:30.046Z,9.93
2018-10-12T19:50:59.230Z,10.03
2018-10-12T19:53:27.833Z,9.85
2018-10-12T19:55:56.472Z,10.10
2018-10-12T19:58:25.041Z,10.10
2018-10-12T20:00:53.685Z,9.90
2018-10-12T20:03:22.007Z,10.03
2018-10-12T20:05:50.561Z,9.38
2018-10-12T20:08:19.207Z,10.45
2018-10-12T20:10:47.771Z,9.88
2018-10-12T20:13:16.520Z,9.58
2018-10-12T20:15:45.176Z,10.00
2018-10-12T20:18:13.789Z,9.73
2018-10-12T20:20:42.395Z,10.13
2018-10-12T20:23:10.989Z,9.53
2018-10-12T20:25:39.613Z,10.35
2018-10-12T20:28:10.295Z,10.20
2018-10-12T20:30:39.001Z,11.45
2018-10-12T20:33:07.664Z,9.90
2018-10-12T20:35:36.264Z,10.38
2018-10-12T20:38:04.853Z,9.68
2018-10-12T20:40:33.440Z,10.90
2018-10-12T20:43:02.061Z,10.63
2018-10-12T20:45:31.023Z,11.00
2018-10-12T20:48:00.692Z,10.48
2018-10-12T20:50:28.991Z,10.50
2018-10-12T20:52:57.587Z,11.03
2018-10-12T20:55:26.140Z,10.53
2018-10-12T20:57:54.789Z,10.90
2018-10-12T21:00:23.496Z,11.12
2018-10-12T21:02:52.447Z,10.53
2018-10-12T21:05:21.179Z,10.35
2018-10-12T21:07:49.823Z,10.68
2018-10-12T21:10:18.449Z,10.35
2018-10-12T21:12:47.018Z,10.45
2018-10-12T21:15:15.663Z,10.48
2018-10-12T21:17:44.303Z,11.70
2018-10-12T21:20:12.904Z,11.18
2018-10-12T21:22:41.488Z,11.50
2018-10-12T21:25:10.129Z,11.12
2018-10-12T21:27:38.743Z,11.22
2018-10-12T21:30:08.301Z,10.85
2018-10-12T21:32:36.868Z,11.80
2018-10-12T21:35:05.522Z,11.20
2018-10-12T21:37:34.121Z,10.70
2018-10-12T21:40:02.686Z,11.10
2018-10-12T21:42:31.272Z,10.98
2018-10-12T21:44:59.864Z,10.80
2018-10-12T21:47:28.522Z,11.03
2018-10-12T21:49:57.122Z,11.28
2018-10-12T21:52:25.707Z,11.03
2018-10-12T21:54:54.352Z,11.55
2018-10-12T21:57:22.913Z,11.03
2018-10-12T21:59:52.538Z,10.98
2018-10-12T22:02:21.156Z,11.18
2018-10-12T22:04:49.411Z,11.05
2018-10-12T22:07:18.010Z,10.15
2018-10-12T22:09:46.668Z,10.80
2018-10-12T22:12:15.314Z,10.43
2018-10-12T22:14:43.911Z,10.32
2018-10-12T22:17:12.613Z,10.38
2018-10-12T22:19:41.224Z,11.22
2018-10-12T22:22:09.832Z,10.65
2018-10-12T22:24:38.400Z,10.72
2018-10-12T22:27:06.981Z,11.00
2018-10-12T22:29:35.570Z,10.72
2018-10-12T22:32:04.224Z,10.58
2018-10-12T22:34:32.848Z,10.30
2018-10-12T22:37:01.460Z,9.83
2018-10-12T22:39:30.063Z,11.38
2018-10-12T22:41:58.651Z,10.28
2018-10-12T22:44:27.231Z,10.65
2018-10-12T22:46:55.786Z,10.63
2018-10-12T22:49:24.396Z,11.35
2018-10-12T22:51:53.037Z,11.12
2018-10-12T22:54:21.612Z,10.90
2018-10-12T22:56:50.237Z,10.82
2018-10-12T22:59:18.910Z,11.05
2018-10-12T23:01:47.498Z,10.48
2018-10-12T23:04:16.092Z,10.50
2018-10-12T23:06:44.664Z,10.45
2018-10-12T23:09:13.272Z,10.82
2018-10-12T23:11:41.881Z,10.90
2018-10-12T23:14:10.744Z,10.50
2018-10-12T23:16:39.395Z,10.65
2018-10-12T23:19:08.202Z,11.20
2018-10-12T23:21:36.782Z,10.50
2018-10-12T23:24:05.374Z,10.20
2018-10-12T23:26:33.946Z,10.98
2018-10-12T23:29:02.536Z,10.82
2018-10-12T23:31:31.208Z,10.88
2018-10-12T23:34:05.545Z,9.95
2018-10-12T23:36:34.152Z,10.18
2018-10-12T23:39:02.872Z,10.40
2018-10-12T23:41:31.516Z,10.90
2018-10-12T23:44:00.108Z,10.40
2018-10-12T23:46:28.752Z,11.22
2018-10-12T23:48:57.326Z,10.32
2018-10-12T23:51:25.892Z,10.50
2018-10-12T23:53:54.456Z,10.08
2018-10-12T23:56:23.014Z,10.53
2018-10-12T23:58:51.604Z,11.08
